Time;durP1;ratioP1;P1;durP2;ratioP2;P2;SDS_P1;SDS_P2;PMS_P1;PMS_P2;Temp;Humidity;BMP_temperature;BMP_pressure;BME280_temperature;BME280_humidity;BME280_pressure;Samples;Min_cycle;Max_cycle;Signal;HPM_P1;HPM_P2
2020/12/05 00:01:39;;;;;;;1.90;1.80;;;9.90;47.70;;;;;;5023834;28;20198;-62
2020/12/05 00:04:05;;;;;;;1.93;1.83;;;9.90;47.00;;;;;;5027285;28;20245;-62
2020/12/05 00:06:32;;;;;;;2.30;2.10;;;9.90;47.00;;;;;;5026289;28;20651;-62
2020/12/05 00:08:58;;;;;;;2.30;2.10;;;9.80;47.00;;;;;;5027848;28;20718;-60
2020/12/05 00:11:26;;;;;;;2.30;2.10;;;9.90;47.10;;;;;;5027481;28;20308;-62
2020/12/05 00:13:53;;;;;;;2.30;2.10;;;9.90;47.00;;;;;;5026477;28;20234;-62
2020/12/05 00:16:20;;;;;;;1.97;1.87;;;9.80;47.00;;;;;;5026810;28;20202;-62
2020/12/05 00:18:48;;;;;;;1.90;1.80;;;9.80;46.90;;;;;;5027838;28;20273;-63
2020/12/05 00:21:17;;;;;;;2.10;1.90;;;9.80;47.00;;;;;;5025500;28;20206;-63
2020/12/05 00:23:43;;;;;;;2.20;1.97;;;9.80;46.90;;;;;;5027273;28;20226;-62
2020/12/05 00:26:14;;;;;;;2.20;2.00;;;9.80;47.00;;;;;;5028963;28;20209;-61
2020/12/05 00:28:41;;;;;;;2.33;1.83;;;9.70;47.00;;;;;;5027059;28;20206;-62
2020/12/05 00:31:08;;;;;;;2.70;2.20;;;9.70;47.00;;;;;;5024485;28;20225;-60
2020/12/05 00:33:34;;;;;;;2.30;2.10;;;9.70;47.00;;;;;;5026054;28;20226;-62
2020/12/05 00:36:01;;;;;;;1.80;1.70;;;9.60;47.00;;;;;;5024434;28;20218;-61
2020/12/05 00:38:28;;;;;;;1.90;1.80;;;9.60;47.10;;;;;;5027835;28;21215;-64
2020/12/05 00:40:55;;;;;;;2.13;2.00;;;9.60;47.10;;;;;;5025428;28;20525;-63
2020/12/05 00:43:22;;;;;;;1.70;1.60;;;9.50;47.10;;;;;;5029149;28;20230;-62
2020/12/05 00:45:48;;;;;;;1.80;1.70;;;9.50;47.20;;;;;;5031571;28;20691;-63
2020/12/05 00:48:16;;;;;;;2.10;2.00;;;9.50;47.20;;;;;;5031509;28;20221;-62
2020/12/05 00:50:42;;;;;;;2.23;1.90;;;9.50;47.20;;;;;;5030065;28;20223;-62
2020/12/05 00:53:09;;;;;;;1.80;1.63;;;9.50;47.30;;;;;;5029416;28;20315;-64
2020/12/05 00:55:35;;;;;;;1.90;1.70;;;9.50;47.40;;;;;;5029010;28;20225;-62
2020/12/05 00:58:02;;;;;;;1.90;1.80;;;9.50;47.40;;;;;;5030345;28;20637;-62
2020/12/05 01:00:28;;;;;;;2.10;1.90;;;9.40;47.50;;;;;;5026610;28;20688;-62
2020/12/05 01:02:54;;;;;;;2.20;1.97;;;9.40;47.50;;;;;;5029932;28;20226;-61
2020/12/05 01:05:22;;;;;;;1.70;1.50;;;9.50;47.50;;;;;;5028821;28;20207;-60
2020/12/05 01:07:48;;;;;;;2.23;1.83;;;9.40;47.50;;;;;;5030193;28;20222;-62
2020/12/05 01:10:15;;;;;;;2.10;1.90;;;9.40;47.60;;;;;;5015208;28;20653;-62
2020/12/05 01:12:41;;;;;;;1.90;1.80;;;9.40;47.50;;;;;;5028032;28;20241;-62
2020/12/05 01:15:07;;;;;;;2.20;2.00;;;9.40;47.50;;;;;;5027209;28;21193;-62
2020/12/05 01:17:35;;;;;;;2.00;1.90;;;9.40;47.50;;;;;;5030780;28;20198;-63
2020/12/05 01:20:04;;;;;;;1.90;1.70;;;9.40;47.50;;;;;;5028221;28;20210;-61
2020/12/05 01:22:31;;;;;;;1.80;1.70;;;9.40;47.50;;;;;;5028530;28;20250;-62
2020/12/05 01:24:57;;;;;;;1.80;1.67;;;9.40;47.50;;;;;;5028755;28;21420;-62
2020/12/05 01:27:24;;;;;;;1.80;1.70;;;9.30;47.50;;;;;;5027450;28;20213;-63
2020/12/05 01:29:51;;;;;;;1.73;1.63;;;9.30;47.60;;;;;;5028772;28;20210;-61
2020/12/05 01:32:17;;;;;;;1.80;1.70;;;9.20;47.60;;;;;;5022859;28;20233;-63
2020/12/05 01:34:44;;;;;;;1.77;1.67;;;9.20;47.70;;;;;;5027321;28;20289;-61
2020/12/05 01:37:11;;;;;;;1.80;1.70;;;9.20;47.70;;;;;;5026212;28;20268;-61
2020/12/05 01:39:38;;;;;;;1.83;1.57;;;9.20;47.80;;;;;;5028499;28;20588;-62
2020/12/05 01:42:05;;;;;;;1.70;1.60;;;9.20;47.90;;;;;;5027641;28;20214;-60
2020/12/05 01:44:32;;;;;;;1.90;1.73;;;9.20;48.00;;;;;;5027288;28;20217;-62
2020/12/05 01:46:58;;;;;;;1.97;1.80;;;9.20;48.00;;;;;;5029021;28;20224;-61
2020/12/05 01:49:26;;;;;;;2.17;1.70;;;9.20;48.10;;;;;;5028998;28;20206;-61
2020/12/05 01:51:53;;;;;;;1.50;1.40;;;9.10;48.10;;;;;;5027313;28;20233;-63
2020/12/05 01:54:19;;;;;;;1.40;1.30;;;9.10;48.10;;;;;;5028368;28;20230;-61
2020/12/05 01:56:57;;;;;;;1.37;1.27;;;9.10;48.10;;;;;;5025970;28;20217;-61
2020/12/05 01:59:24;;;;;;;1.60;1.50;;;9.10;48.20;;;;;;5027827;28;20236;-61
2020/12/05 02:01:52;;;;;;;1.70;1.60;;;9.10;48.20;;;;;;5027126;28;20204;-62
2020/12/05 02:04:19;;;;;;;1.77;1.67;;;9.10;48.30;;;;;;5025018;28;20238;-61
2020/12/05 02:07:10;;;;;;;1.80;1.50;;;9.10;48.20;;;;;;5028117;28;20216;-62
2020/12/05 02:09:43;;;;;;;1.60;1.50;;;9.10;48.20;;;;;;5028394;28;20206;-62
2020/12/05 02:12:26;;;;;;;1.73;1.63;;;9.10;48.20;;;;;;5026222;28;20222;-63
2020/12/05 02:15:02;;;;;;;1.63;1.53;;;9.10;48.30;;;;;;5028399;28;20264;-61
2020/12/05 02:17:30;;;;;;;2.10;1.63;;;9.00;48.30;;;;;;5028270;28;20202;-63
2020/12/05 02:19:58;;;;;;;1.77;1.57;;;9.00;48.30;;;;;;5027822;28;20280;-61
2020/12/05 02:22:31;;;;;;;1.93;1.70;;;8.90;48.40;;;;;;5027820;28;20228;-63
2020/12/05 02:25:00;;;;;;;1.83;1.73;;;8.90;48.40;;;;;;5028689;28;20566;-61
2020/12/05 02:27:29;;;;;;;1.60;1.50;;;8.90;48.40;;;;;;5027689;28;20206;-63
2020/12/05 02:29:57;;;;;;;1.77;1.50;;;8.80;48.40;;;;;;5024913;28;20203;-62
2020/12/05 02:32:23;;;;;;;1.87;1.57;;;8.80;48.50;;;;;;5029912;28;20222;-62
2020/12/05 02:34:50;;;;;;;3.87;2.20;;;8.70;48.50;;;;;;5028842;28;20214;-62
2020/12/05 02:37:24;;;;;;;2.00;1.80;;;8.70;48.60;;;;;;5027218;28;20206;-63
2020/12/05 02:39:52;;;;;;;1.57;1.47;;;8.60;48.70;;;;;;5027495;28;20214;-63
2020/12/05 02:42:19;;;;;;;1.50;1.30;;;8.60;48.80;;;;;;5025996;28;20205;-62
2020/12/05 02:44:48;;;;;;;2.30;1.90;;;8.50;48.80;;;;;;5028852;28;20216;-62
2020/12/05 02:47:15;;;;;;;2.00;1.80;;;8.50;49.60;;;;;;5026936;28;20202;-62
2020/12/05 02:49:42;;;;;;;1.73;1.63;;;8.40;49.10;;;;;;5027828;28;20210;-61
2020/12/05 02:52:09;;;;;;;1.60;1.50;;;8.40;49.10;;;;;;5022927;28;20226;-62
2020/12/05 02:54:36;;;;;;;2.30;2.10;;;8.30;49.20;;;;;;5027784;28;20210;-62
2020/12/05 02:57:04;;;;;;;1.90;1.80;;;8.30;49.20;;;;;;5026714;28;20202;-60
2020/12/05 02:59:32;;;;;;;2.30;2.10;;;8.30;49.40;;;;;;5028026;28;20206;-60
2020/12/05 03:01:59;;;;;;;2.40;2.20;;;8.20;49.40;;;;;;5027500;28;20199;-61
2020/12/05 03:04:26;;;;;;;2.53;2.30;;;8.10;49.40;;;;;;5028354;28;20238;-61
2020/12/05 03:06:53;;;;;;;2.57;2.37;;;8.10;49.40;;;;;;5027286;28;20217;-62
2020/12/05 03:09:19;;;;;;;3.13;2.87;;;8.10;49.50;;;;;;5028976;28;20664;-63
2020/12/05 03:11:45;;;;;;;3.07;2.87;;;8.00;49.50;;;;;;5026871;28;20226;-62
2020/12/05 03:14:12;;;;;;;3.93;3.50;;;7.90;49.40;;;;;;5025736;28;20241;-63
2020/12/05 03:16:39;;;;;;;3.97;3.57;;;7.90;49.50;;;;;;5023721;28;20341;-63
2020/12/05 03:19:06;;;;;;;4.50;4.10;;;7.80;49.50;;;;;;5026541;28;20225;-60
2020/12/05 03:21:32;;;;;;;5.50;5.00;;;7.70;49.60;;;;;;5026654;28;20217;-61
2020/12/05 03:23:58;;;;;;;6.57;5.97;;;7.70;49.80;;;;;;5029460;28;20232;-62
2020/12/05 03:26:25;;;;;;;7.57;6.87;;;7.70;49.90;;;;;;5028802;28;20921;-62
2020/12/05 03:28:51;;;;;;;9.10;8.17;;;7.60;50.10;;;;;;5028289;28;20718;-61
2020/12/05 03:31:31;;;;;;;9.80;8.83;;;7.50;50.10;;;;;;5026610;28;20233;-62
2020/12/05 03:34:00;;;;;;;9.60;8.70;;;7.50;50.20;;;;;;5026175;28;20228;-62
2020/12/05 03:36:26;;;;;;;9.90;8.97;;;7.50;50.40;;;;;;5027401;28;20208;-62
2020/12/05 03:38:53;;;;;;;10.47;9.47;;;7.40;50.50;;;;;;5030830;28;20217;-61
2020/12/05 03:41:23;;;;;;;11.70;10.60;;;7.40;50.60;;;;;;5024580;28;20206;-62
2020/12/05 03:43:50;;;;;;;11.20;10.10;;;7.40;50.70;;;;;;5030796;28;20236;-61
2020/12/05 03:46:16;;;;;;;11.47;10.37;;;7.30;50.80;;;;;;5026696;28;20217;-61
2020/12/05 03:48:43;;;;;;;12.10;10.90;;;7.30;51.00;;;;;;5027108;28;20223;-61
2020/12/05 03:51:10;;;;;;;12.13;10.90;;;7.30;51.20;;;;;;5026317;28;20293;-61
2020/12/05 03:53:37;;;;;;;11.17;10.10;;;7.30;51.20;;;;;;5026959;28;20233;-61
2020/12/05 03:56:04;;;;;;;11.40;10.30;;;7.20;51.30;;;;;;5023524;28;20218;-62
2020/12/05 03:58:30;;;;;;;10.43;9.53;;;7.20;51.40;;;;;;5028063;28;20586;-62
2020/12/05 04:00:57;;;;;;;12.10;10.90;;;7.20;51.50;;;;;;5025000;28;20711;-62
2020/12/05 04:03:23;;;;;;;11.43;10.33;;;7.20;51.60;;;;;;5025339;28;20234;-62
2020/12/05 04:05:50;;;;;;;11.23;10.13;;;7.10;51.60;;;;;;5026128;28;20206;-61
2020/12/05 04:08:18;;;;;;;11.57;10.47;;;7.10;51.60;;;;;;5029104;28;20206;-62
2020/12/05 04:10:44;;;;;;;11.37;10.27;;;7.10;51.70;;;;;;5028760;28;20229;-64
2020/12/05 04:13:12;;;;;;;11.67;10.57;;;7.00;51.80;;;;;;5030342;28;20226;-61
2020/12/05 04:15:38;;;;;;;10.53;9.63;;;7.00;52.00;;;;;;5028235;28;20206;-61
2020/12/05 04:18:05;;;;;;;11.17;10.13;;;7.00;52.00;;;;;;5030903;28;20229;-61
2020/12/05 04:20:31;;;;;;;10.80;9.83;;;7.00;52.20;;;;;;5034329;28;20570;-62
2020/12/05 04:22:58;;;;;;;10.87;9.87;;;6.90;52.20;;;;;;5035735;28;20229;-61
2020/12/05 04:25:25;;;;;;;11.10;10.10;;;6.90;52.30;;;;;;5036073;28;20214;-57
2020/12/05 04:27:52;;;;;;;10.63;9.73;;;7.00;52.50;;;;;;5037124;28;20217;-62
2020/12/05 04:30:18;;;;;;;11.13;10.13;;;7.00;52.60;;;;;;5032455;28;20202;-62
2020/12/05 04:32:45;;;;;;;11.60;10.50;;;7.00;52.70;;;;;;5034597;28;20250;-60
2020/12/05 04:35:11;;;;;;;11.40;10.27;;;7.00;52.80;;;;;;5037731;28;20213;-60
2020/12/05 04:37:38;;;;;;;11.87;10.77;;;7.10;52.90;;;;;;5039017;28;20202;-61
2020/12/05 04:40:07;;;;;;;11.60;10.60;;;7.10;52.90;;;;;;5032810;28;20202;-62
2020/12/05 04:42:44;;;;;;;11.10;10.00;;;7.10;53.10;;;;;;5036656;28;20218;-61
2020/12/05 04:45:11;;;;;;;11.80;10.63;;;7.20;53.40;;;;;;5036772;28;20260;-62
2020/12/05 04:47:41;;;;;;;12.37;11.27;;;7.30;53.30;;;;;;5036978;28;20212;-63
2020/12/05 04:50:09;;;;;;;11.97;10.87;;;7.30;53.30;;;;;;5033900;28;20222;-62
2020/12/05 04:52:49;;;;;;;11.43;10.33;;;7.40;53.50;;;;;;5032716;28;20236;-60
2020/12/05 04:55:16;;;;;;;11.23;10.23;;;7.40;53.60;;;;;;5029427;28;20206;-63
2020/12/05 04:57:49;;;;;;;12.20;11.00;;;7.40;53.40;;;;;;5028742;28;20211;-60
2020/12/05 05:00:16;;;;;;;11.73;10.63;;;7.50;53.60;;;;;;5027563;28;20209;-61
2020/12/05 05:02:45;;;;;;;12.03;10.93;;;7.50;53.50;;;;;;5030299;28;20232;-62
2020/12/05 05:05:14;;;;;;;12.13;11.00;;;7.60;53.60;;;;;;5031720;28;20198;-61
2020/12/05 05:07:49;;;;;;;12.50;11.40;;;7.60;53.50;;;;;;5028077;28;20213;-62
2020/12/05 05:10:20;;;;;;;12.23;11.03;;;7.60;53.60;;;;;;5028800;28;20225;-61
2020/12/05 05:12:48;;;;;;;11.17;10.17;;;7.70;53.60;;;;;;5031808;28;20253;-60
2020/12/05 05:15:28;;;;;;;11.73;10.70;;;7.70;53.40;;;;;;5027044;28;20239;-62
2020/12/05 05:18:00;;;;;;;10.83;9.83;;;7.70;53.60;;;;;;5028544;28;20206;-63
2020/12/05 05:20:30;;;;;;;11.50;10.43;;;7.70;53.40;;;;;;5030663;28;20310;-62
2020/12/05 05:23:14;;;;;;;12.37;11.20;;;7.70;53.40;;;;;;5032429;28;20229;-62
2020/12/05 05:25:57;;;;;;;11.97;10.93;;;7.70;53.90;;;;;;5030381;28;20199;-62
2020/12/05 05:28:28;;;;;;;11.40;10.30;;;7.70;53.90;;;;;;5030298;28;20213;-62
2020/12/05 05:31:11;;;;;;;12.03;10.97;;;7.70;53.60;;;;;;5027806;28;20206;-61
2020/12/05 05:33:40;;;;;;;11.43;10.43;;;7.70;53.90;;;;;;5030538;28;20229;-62
2020/12/05 05:36:25;;;;;;;11.43;10.43;;;7.70;53.70;;;;;;5030099;28;20206;-61
2020/12/05 05:39:00;;;;;;;11.77;10.67;;;7.70;54.70;;;;;;5030607;28;20198;-62
2020/12/05 05:41:27;;;;;;;11.60;10.60;;;7.70;53.90;;;;;;5029887;28;20208;-61
2020/12/05 05:43:58;;;;;;;11.57;10.47;;;7.70;53.70;;;;;;5029339;28;20325;-62
2020/12/05 05:46:28;;;;;;;12.00;11.00;;;7.70;53.80;;;;;;5027976;28;20210;-62
2020/12/05 05:48:56;;;;;;;11.13;10.13;;;7.70;53.90;;;;;;5030688;28;20214;-62
2020/12/05 05:51:45;;;;;;;11.97;10.87;;;7.70;53.90;;;;;;5024629;28;20218;-63
2020/12/05 05:54:22;;;;;;;10.80;9.90;;;7.70;54.30;;;;;;5024730;28;20226;-61
2020/12/05 05:57:05;;;;;;;11.30;10.30;;;7.70;54.00;;;;;;5026179;28;20234;-63
2020/12/05 05:59:35;;;;;;;11.23;10.27;;;7.70;54.10;;;;;;5027666;28;20215;-62
2020/12/05 06:02:03;;;;;;;11.60;10.50;;;7.70;53.80;;;;;;5026047;28;20202;-62
2020/12/05 06:04:33;;;;;;;12.23;11.03;;;7.70;53.90;;;;;;5026600;28;20234;-62
2020/12/05 06:07:02;;;;;;;11.13;10.13;;;7.60;54.20;;;;;;5030143;28;20237;-61
2020/12/05 06:09:41;;;;;;;11.30;10.30;;;7.70;54.30;;;;;;5028837;28;20206;-63
2020/12/05 06:12:11;;;;;;;11.57;10.57;;;7.60;54.40;;;;;;5023998;28;20703;-62
2020/12/05 06:14:42;;;;;;;11.60;10.50;;;7.70;54.40;;;;;;5028350;28;20221;-61
2020/12/05 06:17:09;;;;;;;12.13;11.03;;;7.70;54.50;;;;;;5028871;28;20293;-62
2020/12/05 06:19:39;;;;;;;11.60;10.60;;;7.70;54.50;;;;;;5029497;28;20198;-62
2020/12/05 06:22:11;;;;;;;11.83;10.73;;;7.70;54.50;;;;;;5023842;28;20605;-61
2020/12/05 06:24:50;;;;;;;12.20;11.10;;;7.80;54.60;;;;;;5027309;28;20234;-62
2020/12/05 06:27:19;;;;;;;11.73;10.63;;;7.80;54.80;;;;;;5025970;28;20566;-62
2020/12/05 06:29:48;;;;;;;12.00;10.93;;;7.80;54.60;;;;;;5029881;28;20206;-59
2020/12/05 06:32:38;;;;;;;12.20;11.10;;;7.80;54.60;;;;;;5025357;28;20230;-62
2020/12/05 06:35:06;;;;;;;11.40;10.43;;;7.90;55.00;;;;;;5026495;28;20203;-63
2020/12/05 06:37:35;;;;;;;11.93;10.93;;;7.90;54.50;;;;;;5027067;28;20206;-63
2020/12/05 06:40:03;;;;;;;11.90;10.83;;;7.90;54.60;;;;;;5028780;28;20202;-62
2020/12/05 06:42:39;;;;;;;12.37;11.23;;;8.00;54.60;;;;;;5031348;28;20222;-60
2020/12/05 06:45:06;;;;;;;11.90;10.83;;;8.00;54.70;;;;;;5027191;28;20206;-62
2020/12/05 06:47:33;;;;;;;11.40;10.40;;;8.00;54.50;;;;;;5029223;28;20221;-63
2020/12/05 06:50:00;;;;;;;12.00;10.90;;;8.10;54.60;;;;;;5025521;28;20221;-61
2020/12/05 06:52:43;;;;;;;11.63;10.63;;;8.10;54.50;;;;;;5024129;28;20257;-62
2020/12/05 06:55:16;;;;;;;12.43;11.37;;;8.10;54.70;;;;;;5027316;28;20236;-61
2020/12/05 06:57:44;;;;;;;12.57;11.30;;;8.10;54.60;;;;;;5028965;28;20695;-61
2020/12/05 07:00:26;;;;;;;12.70;11.50;;;8.10;54.60;;;;;;5024023;28;20199;-61
2020/12/05 07:03:00;;;;;;;11.73;10.73;;;8.20;55.00;;;;;;5027033;28;20276;-62
2020/12/05 07:05:37;;;;;;;12.50;11.30;;;8.20;54.70;;;;;;5029560;28;20206;-60
2020/12/05 07:08:23;;;;;;;12.77;11.67;;;8.20;54.80;;;;;;5027162;28;20236;-62
2020/12/05 07:11:03;;;;;;;12.13;11.10;;;8.30;54.90;;;;;;5029135;28;20234;-61
2020/12/05 07:13:39;;;;;;;12.43;11.33;;;8.30;54.80;;;;;;5030011;28;20283;-62
2020/12/05 07:16:20;;;;;;;12.73;11.53;;;8.40;54.80;;;;;;5024396;28;20575;-61
2020/12/05 07:18:49;;;;;;;12.07;10.97;;;8.40;54.70;;;;;;5029257;28;20206;-63
2020/12/05 07:21:16;;;;;;;12.80;11.60;;;8.50;54.70;;;;;;5024859;28;20213;-62
2020/12/05 07:23:43;;;;;;;13.07;11.87;;;8.50;54.60;;;;;;5027995;28;20226;-62
2020/12/05 07:26:11;;;;;;;13.87;12.57;;;8.50;54.60;;;;;;5028736;28;20206;-61
2020/12/05 07:28:38;;;;;;;12.63;11.53;;;8.60;55.30;;;;;;5027206;28;20236;-63
2020/12/05 07:31:05;;;;;;;12.73;11.53;;;8.60;54.60;;;;;;5025875;28;20221;-61
2020/12/05 07:33:35;;;;;;;13.07;11.97;;;8.60;54.60;;;;;;5026035;28;20234;-63
2020/12/05 07:36:05;;;;;;;11.67;10.67;;;8.60;54.60;;;;;;5026628;28;20332;-63
2020/12/05 07:38:34;;;;;;;12.73;11.53;;;8.60;54.60;;;;;;5026232;28;20206;-62
2020/12/05 07:41:09;;;;;;;12.07;10.97;;;8.60;54.50;;;;;;5025200;28;20210;-62
2020/12/05 07:43:37;;;;;;;11.53;10.57;;;8.70;54.60;;;;;;5028168;28;20213;-60
2020/12/05 07:46:06;;;;;;;12.40;11.30;;;8.70;54.50;;;;;;5025433;28;20218;-61
2020/12/05 07:48:34;;;;;;;11.43;10.43;;;8.70;54.50;;;;;;5027585;28;20232;-63
2020/12/05 07:51:02;;;;;;;11.37;10.37;;;8.70;54.40;;;;;;5023591;28;20214;-62
2020/12/05 07:53:33;;;;;;;11.77;10.77;;;8.80;54.50;;;;;;5025483;28;20226;-62
2020/12/05 07:56:17;;;;;;;11.10;10.03;;;8.80;54.50;;;;;;5026826;28;20210;-62
2020/12/05 07:58:46;;;;;;;11.67;10.57;;;8.80;54.50;;;;;;5028418;28;20217;-62
2020/12/05 08:01:30;;;;;;;11.13;10.13;;;8.80;54.30;;;;;;5028402;28;20570;-62
2020/12/05 08:04:45;;;;;;;11.70;10.70;;;8.90;54.30;;;;;;5023755;28;20230;-63
2020/12/05 08:07:38;;;;;;;10.80;9.83;;;8.90;54.40;;;;;;4942734;28;20213;-62
2020/12/05 08:10:07;;;;;;;10.40;9.50;;;8.90;54.40;;;;;;5025602;28;20209;-61
2020/12/05 08:13:16;;;;;;;11.70;10.67;;;8.90;54.30;;;;;;5025768;28;20238;-62
2020/12/05 08:15:43;;;;;;;10.77;9.73;;;8.90;54.50;;;;;;5024135;28;20218;-62
2020/12/05 08:18:10;;;;;;;11.37;10.37;;;8.90;54.30;;;;;;5028327;28;20233;-61
2020/12/05 08:20:43;;;;;;;10.77;9.77;;;9.00;54.40;;;;;;5024821;28;20700;-62
2020/12/05 08:23:21;;;;;;;10.73;9.83;;;9.00;54.50;;;;;;5026079;28;20218;-65
2020/12/05 08:25:49;;;;;;;10.43;9.53;;;9.10;54.50;;;;;;5025917;28;20304;-61
2020/12/05 08:28:19;;;;;;;10.50;9.60;;;9.10;54.30;;;;;;5024156;28;20202;-62
2020/12/05 08:30:54;;;;;;;10.70;9.80;;;9.20;54.30;;;;;;5025615;28;20280;-62
2020/12/05 08:33:22;;;;;;;10.63;9.73;;;9.20;54.30;;;;;;5024653;28;20257;-63
2020/12/05 08:35:49;;;;;;;10.23;9.33;;;9.20;54.20;;;;;;5026546;28;20206;-62
2020/12/05 08:38:24;;;;;;;10.03;9.17;;;9.30;54.20;;;;;;5025170;28;20279;-63
2020/12/05 08:41:02;;;;;;;10.10;9.20;;;9.30;54.20;;;;;;5024131;28;20259;-62
2020/12/05 08:43:29;;;;;;;9.40;8.60;;;9.30;54.20;;;;;;5027154;28;20226;-61
2020/12/05 08:45:56;;;;;;;10.17;9.27;;;9.40;54.10;;;;;;5021814;28;20218;-63
2020/12/05 08:48:23;;;;;;;10.40;9.50;;;9.40;54.10;;;;;;5025427;28;20213;-62
2020/12/05 08:50:50;;;;;;;9.37;8.57;;;9.50;54.10;;;;;;5026348;28;20316;-63
2020/12/05 08:53:22;;;;;;;10.63;9.73;;;9.50;54.00;;;;;;5023916;28;20237;-62
2020/12/05 08:55:49;;;;;;;10.03;9.13;;;9.50;54.00;;;;;;5025836;28;20241;-63
2020/12/05 08:58:16;;;;;;;9.57;8.77;;;9.60;54.00;;;;;;5027657;28;20218;-62
2020/12/05 09:00:50;;;;;;;9.47;8.57;;;9.60;53.90;;;;;;5026839;28;20218;-62
2020/12/05 09:03:22;;;;;;;9.00;8.20;;;9.60;53.90;;;;;;5026668;28;20280;-62
2020/12/05 09:05:51;;;;;;;7.93;7.23;;;9.60;53.90;;;;;;5029010;28;20218;-62
2020/12/05 09:08:23;;;;;;;8.33;7.63;;;9.70;53.90;;;;;;5026030;28;20203;-62
2020/12/05 09:10:51;;;;;;;8.13;7.50;;;9.70;53.80;;;;;;5027215;28;20679;-63
2020/12/05 09:13:19;;;;;;;7.93;7.23;;;9.70;53.80;;;;;;5027940;28;20357;-63
2020/12/05 09:16:03;;;;;;;8.23;7.43;;;9.70;53.70;;;;;;5026341;28;20277;-63
2020/12/05 09:18:43;;;;;;;7.73;7.03;;;9.80;53.90;;;;;;5025949;28;20797;-63
2020/12/05 09:21:19;;;;;;;7.60;6.97;;;9.80;53.90;;;;;;5026822;28;20589;-62
2020/12/05 09:23:59;;;;;;;7.90;7.30;;;9.80;53.80;;;;;;5026185;28;20234;-62
2020/12/05 09:26:25;;;;;;;8.40;7.70;;;9.80;53.80;;;;;;5031064;28;20682;-60
2020/12/05 09:28:54;;;;;;;8.43;7.73;;;9.90;53.70;;;;;;5030939;28;20236;-63
2020/12/05 09:31:21;;;;;;;8.83;8.03;;;9.90;53.70;;;;;;5029594;28;20202;-62
2020/12/05 09:33:47;;;;;;;8.70;8.00;;;10.00;53.70;;;;;;5030081;28;20238;-62
2020/12/05 09:36:14;;;;;;;8.17;7.47;;;10.00;53.70;;;;;;5029443;28;20210;-63
2020/12/05 09:38:43;;;;;;;8.03;7.37;;;10.00;53.70;;;;;;5031218;28;20565;-63
2020/12/05 09:41:10;;;;;;;8.47;7.77;;;10.10;53.70;;;;;;5029975;28;20202;-63
2020/12/05 09:43:36;;;;;;;8.00;7.33;;;10.20;54.40;;;;;;5030609;28;20233;-62
2020/12/05 09:46:02;;;;;;;6.97;6.37;;;10.20;53.70;;;;;;5028469;28;20206;-64
2020/12/05 09:48:29;;;;;;;7.80;7.13;;;10.30;53.60;;;;;;5031544;28;20209;-64
2020/12/05 09:50:55;;;;;;;6.87;6.37;;;10.30;53.40;;;;;;5029507;28;20236;-63
2020/12/05 09:53:22;;;;;;;7.57;6.97;;;10.30;53.30;;;;;;5031566;28;20233;-64
2020/12/05 09:55:49;;;;;;;6.20;5.70;;;10.30;53.10;;;;;;5031753;28;20238;-68
2020/12/05 09:58:15;;;;;;;6.37;5.87;;;10.40;53.10;;;;;;5031126;28;20314;-61
2020/12/05 10:01:18;;;;;;;5.90;5.40;;;10.40;53.00;;;;;;5030529;28;20690;-69
2020/12/05 10:03:51;;;;;;;5.30;4.90;;;10.30;53.10;;;;;;5018949;28;20258;-69
2020/12/05 10:06:18;;;;;;;5.13;4.73;;;10.30;53.00;;;;;;5031334;28;20226;-65
2020/12/05 10:08:44;;;;;;;5.47;5.07;;;10.30;53.10;;;;;;5030557;28;20216;-65
2020/12/05 10:11:12;;;;;;;5.83;5.33;;;10.30;53.20;;;;;;5029424;28;20206;-66
2020/12/05 10:13:38;;;;;;;5.23;4.83;;;10.30;53.30;;;;;;5029929;28;20230;-65
2020/12/05 10:16:05;;;;;;;5.47;5.07;;;10.30;53.30;;;;;;5028336;28;20231;-66
2020/12/05 10:18:31;;;;;;;5.13;4.73;;;10.30;53.30;;;;;;5027893;28;20252;-62
2020/12/05 10:20:57;;;;;;;5.63;5.23;;;10.30;53.30;;;;;;5029243;28;20210;-62
2020/12/05 10:23:24;;;;;;;5.53;5.13;;;10.30;54.00;;;;;;5029218;28;20227;-62
2020/12/05 10:25:55;;;;;;;5.30;4.90;;;10.30;53.30;;;;;;5031785;28;20234;-63
2020/12/05 10:28:25;;;;;;;5.73;5.23;;;10.40;53.40;;;;;;5029461;28;20214;-63
2020/12/05 10:30:57;;;;;;;5.33;4.93;;;10.40;53.40;;;;;;5030194;28;20286;-63
2020/12/05 10:33:23;;;;;;;5.93;5.43;;;10.40;53.40;;;;;;5023825;28;20711;-61
2020/12/05 10:35:49;;;;;;;5.97;5.47;;;10.40;53.40;;;;;;5024333;28;20198;-60
2020/12/05 10:38:16;;;;;;;5.63;5.13;;;10.40;53.30;;;;;;5026467;28;20202;-62
2020/12/05 10:40:42;;;;;;;6.80;6.30;;;10.40;53.20;;;;;;5027432;28;20359;-61
2020/12/05 10:43:09;;;;;;;8.80;8.00;;;10.40;53.10;;;;;;5028773;28;20318;-65
2020/12/05 10:45:36;;;;;;;9.97;9.17;;;10.50;53.00;;;;;;5029085;28;20300;-64
2020/12/05 10:48:03;;;;;;;12.50;11.50;;;10.50;52.80;;;;;;5029040;28;20213;-66
2020/12/05 10:50:29;;;;;;;11.93;10.83;;;10.40;52.70;;;;;;5025821;28;20687;-66
2020/12/05 10:52:55;;;;;;;12.07;10.97;;;10.30;52.60;;;;;;5026854;28;20228;-61
2020/12/05 10:55:22;;;;;;;12.87;11.67;;;10.30;52.60;;;;;;5025563;28;20210;-66
2020/12/05 10:57:48;;;;;;;12.67;11.50;;;10.20;52.60;;;;;;5025957;28;20213;-62
2020/12/05 11:00:15;;;;;;;11.80;10.80;;;10.00;52.70;;;;;;5022032;28;20214;-61
2020/12/05 11:02:42;;;;;;;10.97;10.07;;;10.00;52.90;;;;;;5025945;28;20660;-64
2020/12/05 11:05:08;;;;;;;11.93;10.83;;;9.90;53.10;;;;;;5024602;28;20202;-58
2020/12/05 11:07:34;;;;;;;12.50;11.50;;;9.80;53.10;;;;;;5026212;28;20206;-65
2020/12/05 11:10:01;;;;;;;12.10;11.07;;;9.80;53.30;;;;;;5025030;28;20261;-67
2020/12/05 11:12:28;;;;;;;11.80;10.80;;;9.70;53.30;;;;;;5022693;28;20202;-67
2020/12/05 11:14:55;;;;;;;12.43;11.33;;;9.70;53.50;;;;;;5027183;28;20572;-60
2020/12/05 11:17:21;;;;;;;12.00;11.00;;;9.70;53.60;;;;;;5027559;28;20209;-60
2020/12/05 11:19:49;;;;;;;11.67;10.60;;;9.60;53.70;;;;;;5027651;28;20302;-63
2020/12/05 11:22:15;;;;;;;11.53;10.43;;;9.60;53.90;;;;;;5028054;28;20202;-62
2020/12/05 11:24:42;;;;;;;9.97;9.07;;;9.50;53.80;;;;;;5028274;28;20210;-62
2020/12/05 11:27:08;;;;;;;9.97;9.07;;;9.50;54.00;;;;;;5026665;28;20218;-61
2020/12/05 11:29:35;;;;;;;10.27;9.37;;;9.40;54.20;;;;;;5027733;28;20211;-62
2020/12/05 11:32:01;;;;;;;9.97;9.07;;;9.40;54.40;;;;;;5027968;28;20213;-62
2020/12/05 11:34:27;;;;;;;12.03;10.77;;;9.30;54.40;;;;;;5024420;28;20226;-60
2020/12/05 11:36:55;;;;;;;11.03;10.03;;;9.30;54.50;;;;;;5025753;28;20214;-62
2020/12/05 11:39:21;;;;;;;11.77;10.73;;;9.30;54.50;;;;;;5026458;28;20206;-69
2020/12/05 11:41:47;;;;;;;10.97;9.90;;;9.20;54.50;;;;;;5026097;28;20636;-60
2020/12/05 11:44:14;;;;;;;11.30;10.20;;;9.20;54.70;;;;;;5027692;28;20245;-60
2020/12/05 11:46:40;;;;;;;12.23;11.23;;;9.20;54.90;;;;;;5027322;28;20260;-60
2020/12/05 11:49:07;;;;;;;13.27;12.07;;;9.10;55.00;;;;;;5026579;28;20209;-62
2020/12/05 11:51:33;;;;;;;12.87;11.77;;;9.00;55.20;;;;;;5026809;28;20206;-64
2020/12/05 11:54:01;;;;;;;12.70;11.60;;;9.00;55.50;;;;;;5025013;28;20237;-63
2020/12/05 11:56:27;;;;;;;14.13;12.93;;;8.90;55.80;;;;;;5028085;28;20252;-63
2020/12/05 11:58:53;;;;;;;13.83;12.53;;;8.90;55.90;;;;;;5024056;28;20211;-64
2020/12/05 12:01:20;;;;;;;14.47;13.13;;;8.80;56.30;;;;;;5024665;28;20213;-64
2020/12/05 12:03:46;;;;;;;14.30;13.00;;;8.80;57.00;;;;;;5024908;28;20234;-62
2020/12/05 12:06:21;;;;;;;13.53;12.27;;;8.70;57.40;;;;;;5026399;28;20698;-63
2020/12/05 12:08:48;;;;;;;12.63;11.53;;;8.70;58.20;;;;;;5028335;28;20210;-63
2020/12/05 12:11:16;;;;;;;13.60;12.43;;;8.70;58.30;;;;;;5027885;28;20431;-64
2020/12/05 12:13:43;;;;;;;14.70;13.40;;;8.70;58.60;;;;;;5027469;28;20226;-63
2020/12/05 12:16:12;;;;;;;14.13;12.93;;;8.60;58.60;;;;;;5029367;28;20210;-63
2020/12/05 12:18:39;;;;;;;13.93;12.63;;;8.60;58.80;;;;;;5028458;28;20565;-62
2020/12/05 12:21:06;;;;;;;13.40;12.20;;;8.60;58.70;;;;;;5026092;28;20210;-63
2020/12/05 12:23:32;;;;;;;12.90;11.80;;;8.60;58.90;;;;;;5028785;28;20226;-63
2020/12/05 12:25:59;;;;;;;14.60;13.30;;;8.60;59.00;;;;;;5023652;28;20197;-65
2020/12/05 12:28:26;;;;;;;13.80;12.60;;;8.60;59.20;;;;;;5025646;28;20206;-62
2020/12/05 12:30:52;;;;;;;13.57;12.37;;;8.60;59.60;;;;;;5024637;28;20218;-63
2020/12/05 12:33:19;;;;;;;13.30;12.10;;;8.50;59.60;;;;;;5023162;28;20309;-64
2020/12/05 12:35:46;;;;;;;12.70;11.53;;;8.50;59.80;;;;;;5027931;28;20207;-63
2020/12/05 12:38:13;;;;;;;12.53;11.43;;;8.50;60.50;;;;;;5030815;28;20726;-63
2020/12/05 12:40:39;;;;;;;11.70;10.67;;;8.50;60.50;;;;;;5032279;28;20264;-60
2020/12/05 12:43:06;;;;;;;11.93;10.83;;;8.50;60.60;;;;;;5032159;28;20222;-59
2020/12/05 12:45:33;;;;;;;11.40;10.40;;;8.50;60.60;;;;;;5026307;28;20214;-58
2020/12/05 12:50:44;;;;;;;11.53;10.53;;;8.50;60.60;;;;;;5026001;28;20202;-66
2020/12/05 12:53:12;;;;;;;11.73;10.73;;;8.50;60.40;;;;;;5021991;28;20296;-63
2020/12/05 12:55:45;;;;;;;13.20;12.00;;;8.50;60.20;;;;;;5027207;28;20222;-63
2020/12/05 12:58:14;;;;;;;11.77;10.77;;;8.50;60.10;;;;;;5025327;28;20218;-63
2020/12/05 13:00:42;;;;;;;12.33;11.23;;;8.40;60.10;;;;;;5025739;28;20213;-61